KFFT/FFT METAR and TAF weather

Enter ICAO airport designator
Station Type Date Time Source
KFFT METAR 2020/04/06 10:53 UTC NOAA

KFFT 061053Z AUTO 00000KT 8SM BKN070 OVC090 11/08 A3009 RMK AO2 SLP186 T01060083


Station Type Date Time Source
KFFT Decoded METAR 2020/04/06 10:53 UTC NOAA

FRANKFORT CAPITAL CITY AIRPORT , KY, United States (KFFT) 38-11N 84-54W 236M
Apr 06, 2020 - 06:53 AM EDT / 2020.04.06 1053 UTC
Wind: Calm:0
Visibility: 8 mile(s):0
Sky conditions: overcast
Temperature: 51.1 F (10.6 C)
Dew Point: 46.9 F (8.3 C)
Relative Humidity: 85%
Pressure (altimeter): 30.09 in. Hg (1018 hPa)
ob: KFFT 061053Z AUTO 00000KT 8SM BKN070 OVC090 11/08 A3009 RMK AO2 SLP186 T01060083
cycle: 11

Station Type Date Time Source
KFFT TAF UTC NOAA

Error!

Example: see airport list